createdAt,value
2023-02-05T00:01:41.696Z,102638.19
2023-02-05T00:04:08.975Z,102636.69
2023-02-05T00:06:36.257Z,102636.03
2023-02-05T00:09:04.953Z,102630.69
2023-02-05T00:11:32.396Z,102628.50
2023-02-05T00:13:59.872Z,102629.91
2023-02-05T00:16:27.140Z,102621.66
2023-02-05T00:18:54.869Z,102624.84
2023-02-05T00:21:22.826Z,102628.38
2023-02-05T00:23:50.694Z,102635.38
2023-02-05T00:26:19.314Z,102626.94
2023-02-05T00:28:46.765Z,102627.84
2023-02-05T00:31:15.365Z,102620.22
2023-02-05T00:33:42.999Z,102616.66
2023-02-05T00:36:12.673Z,102617.59
2023-02-05T00:38:41.464Z,102616.75
2023-02-05T00:41:08.733Z,102612.19
2023-02-05T00:43:37.311Z,102610.31
2023-02-05T00:46:04.601Z,102621.47
2023-02-05T00:48:31.882Z,102622.81
2023-02-05T00:50:59.456Z,102627.31
2023-02-05T00:53:26.975Z,102624.88
2023-02-05T00:55:54.264Z,102639.84
2023-02-05T00:58:21.892Z,102637.22
2023-02-05T01:00:51.095Z,102629.50
2023-02-05T01:03:18.413Z,102640.72
2023-02-05T01:05:45.956Z,102632.09
2023-02-05T01:08:13.740Z,102631.84
2023-02-05T01:10:44.193Z,102636.25
2023-02-05T01:13:11.466Z,102627.44
2023-02-05T01:15:38.901Z,102643.19
2023-02-05T01:18:07.611Z,102645.00
2023-02-05T01:20:37.221Z,102640.72
2023-02-05T01:23:04.643Z,102652.13
2023-02-05T01:25:32.156Z,102646.03
2023-02-05T01:27:59.684Z,102646.28
2023-02-05T01:30:26.947Z,102636.25
2023-02-05T01:32:54.200Z,102636.22
2023-02-05T01:35:22.782Z,102630.88
2023-02-05T01:37:50.054Z,102625.47
2023-02-05T01:40:18.004Z,102628.16
2023-02-05T01:42:45.709Z,102621.88
2023-02-05T01:45:32.818Z,102610.09
2023-02-05T01:48:01.317Z,102604.03
2023-02-05T01:50:33.014Z,102600.66
2023-02-05T01:53:02.766Z,102595.06
2023-02-05T01:55:31.054Z,102592.88
2023-02-05T01:57:59.855Z,102599.06
2023-02-05T02:00:27.220Z,102604.59
2023-02-05T02:02:54.769Z,102586.19
2023-02-05T02:05:22.065Z,102594.09
2023-02-05T02:07:50.673Z,102586.69
2023-02-05T02:10:18.918Z,102592.19
2023-02-05T02:12:47.451Z,102581.28
2023-02-05T02:15:17.216Z,102571.69
2023-02-05T02:17:46.567Z,102565.25
2023-02-05T02:20:15.459Z,102567.06
2023-02-05T02:22:47.399Z,102558.81
2023-02-05T02:25:25.333Z,102555.59
2023-02-05T02:27:58.059Z,102551.41
2023-02-05T02:30:27.307Z,102544.91
2023-02-05T02:32:59.100Z,102552.22
2023-02-05T02:35:28.322Z,102535.34
2023-02-05T02:37:59.323Z,102549.91
2023-02-05T02:40:30.250Z,102548.56
2023-02-05T02:43:04.617Z,102530.50
2023-02-05T02:45:35.307Z,102532.50
2023-02-05T02:48:04.388Z,102529.03
2023-02-05T02:50:34.660Z,102522.03
2023-02-05T02:53:04.517Z,102525.25
2023-02-05T02:55:36.040Z,102527.00
2023-02-05T02:58:05.337Z,102520.81
2023-02-05T03:00:33.012Z,102517.84
2023-02-05T03:03:03.054Z,102512.31
2023-02-05T03:05:31.080Z,102500.28
2023-02-05T03:08:00.366Z,102518.19
2023-02-05T03:10:33.026Z,102513.91
2023-02-05T03:13:00.404Z,102508.25
2023-02-05T03:15:29.045Z,102502.44
2023-02-05T03:17:56.451Z,102507.91
2023-02-05T03:20:27.010Z,102503.00
2023-02-05T03:22:54.404Z,102505.56
2023-02-05T03:25:22.449Z,102503.75
2023-02-05T03:27:52.012Z,102507.00
2023-02-05T03:30:19.410Z,102500.97
2023-02-05T03:32:56.086Z,102502.50
2023-02-05T03:35:30.522Z,102505.22
2023-02-05T03:38:07.050Z,102511.53
2023-02-05T03:40:39.008Z,102503.72
2023-02-05T03:43:11.085Z,102503.78
2023-02-05T03:45:44.284Z,102498.38
2023-02-05T03:48:35.480Z,102502.91
2023-02-05T03:51:08.886Z,102501.47
2023-02-05T03:53:38.294Z,102501.38
2023-02-05T03:56:07.249Z,102506.81
2023-02-05T03:58:36.651Z,102516.56
2023-02-05T04:01:04.762Z,102513.00
2023-02-05T04:03:33.484Z,102520.44
2023-02-05T04:06:00.879Z,102516.78
2023-02-05T04:08:28.161Z,102507.53
2023-02-05T04:10:55.435Z,102503.44
2023-02-05T04:13:22.700Z,102504.97
2023-02-05T04:15:50.074Z,102509.50
2023-02-05T04:18:17.385Z,102506.28
2023-02-05T04:20:46.247Z,102511.09
2023-02-05T04:23:13.546Z,102517.03
2023-02-05T04:25:41.496Z,102519.53
2023-02-05T04:28:08.936Z,102514.75
2023-02-05T04:30:36.296Z,102512.72
2023-02-05T04:33:03.643Z,102512.28
2023-02-05T04:35:30.899Z,102514.97
2023-02-05T04:37:59.494Z,102528.16
2023-02-05T04:40:26.786Z,102528.63
2023-02-05T04:42:54.076Z,102522.63
2023-02-05T04:45:21.422Z,102523.16
2023-02-05T04:47:48.829Z,102520.81
2023-02-05T04:50:16.206Z,102525.19
2023-02-05T04:52:43.465Z,102521.41
2023-02-05T04:55:12.062Z,102528.94
2023-02-05T04:57:39.337Z,102531.38
2023-02-05T05:00:07.070Z,102525.53
2023-02-05T05:02:34.701Z,102532.34
2023-02-05T05:05:02.016Z,102529.97
2023-02-05T05:07:30.720Z,102533.94
2023-02-05T05:09:57.992Z,102533.06
2023-02-05T05:12:26.589Z,102531.25
2023-02-05T05:14:53.845Z,102531.06
2023-02-05T05:17:21.116Z,102528.88
2023-02-05T05:19:48.384Z,102538.47
2023-02-05T05:22:15.633Z,102542.78
2023-02-05T05:24:42.893Z,102541.19
2023-02-05T05:27:10.173Z,102543.31
2023-02-05T05:29:38.808Z,102550.72
2023-02-05T05:32:06.160Z,102556.94
2023-02-05T05:34:33.445Z,102565.16
2023-02-05T05:37:00.685Z,102565.97
2023-02-05T05:39:45.374Z,102567.91
2023-02-05T05:42:30.065Z,102557.50
2023-02-05T05:44:58.682Z,102558.56
2023-02-05T05:47:25.988Z,102548.06
2023-02-05T05:49:53.592Z,102559.56
2023-02-05T05:52:20.855Z,102558.44
2023-02-05T05:54:48.093Z,102553.09
2023-02-05T05:57:15.352Z,102558.22
2023-02-05T05:59:42.635Z,102550.34
2023-02-05T06:02:11.247Z,102549.50
2023-02-05T06:04:38.576Z,102547.00
2023-02-05T06:07:05.905Z,102554.72
2023-02-05T06:09:33.166Z,102544.22
2023-02-05T06:12:00.601Z,102554.09
2023-02-05T06:14:27.897Z,102556.03
2023-02-05T06:16:55.794Z,102550.78
2023-02-05T06:19:24.389Z,102561.72
2023-02-05T06:21:51.686Z,102553.50
2023-02-05T06:24:18.933Z,102557.38
2023-02-05T06:26:46.187Z,102557.66
2023-02-05T06:29:13.460Z,102543.47
2023-02-05T06:31:41.234Z,102540.72
2023-02-05T06:34:08.564Z,102558.03
2023-02-05T06:36:37.190Z,102557.59
2023-02-05T06:39:04.539Z,102556.78
2023-02-05T06:41:31.785Z,102555.09
2023-02-05T06:43:59.034Z,102555.09
2023-02-05T06:46:26.407Z,102555.91
2023-02-05T06:48:53.708Z,102565.91
2023-02-05T06:51:20.965Z,102571.72
2023-02-05T06:53:49.537Z,102568.22
2023-02-05T06:56:16.780Z,102572.91
2023-02-05T06:58:44.033Z,102562.25
2023-02-05T07:01:11.614Z,102572.78
2023-02-05T07:03:38.903Z,102578.22
2023-02-05T07:06:07.158Z,102575.81
2023-02-05T07:08:34.445Z,102565.69
2023-02-05T07:11:03.158Z,102559.69
2023-02-05T07:13:31.024Z,102563.50
2023-02-05T07:15:58.351Z,102554.75
2023-02-05T07:18:25.750Z,102557.78
2023-02-05T07:20:53.027Z,102566.03
2023-02-05T07:23:20.276Z,102564.66
2023-02-05T07:25:47.512Z,102565.75
2023-02-05T07:28:16.137Z,102553.75
2023-02-05T07:30:43.462Z,102551.34
2023-02-05T07:33:10.767Z,102555.97
2023-02-05T07:35:39.291Z,102556.94
2023-02-05T07:38:06.611Z,102560.91
2023-02-05T07:40:33.897Z,102561.06
2023-02-05T07:43:01.195Z,102565.75
2023-02-05T07:45:29.819Z,102559.94
2023-02-05T07:47:57.102Z,102564.91
2023-02-05T07:50:24.669Z,102556.19
2023-02-05T07:52:51.931Z,102548.44
2023-02-05T07:55:19.282Z,102559.56
2023-02-05T07:57:46.984Z,102558.81
2023-02-05T08:00:14.540Z,102561.28
2023-02-05T08:02:43.150Z,102575.63
2023-02-05T08:05:10.448Z,102577.56
2023-02-05T08:07:38.247Z,102577.56
2023-02-05T08:10:05.844Z,102574.09
2023-02-05T08:12:33.107Z,102567.09
2023-02-05T08:15:00.376Z,102577.91
2023-02-05T08:17:27.663Z,102566.50
2023-02-05T08:19:56.248Z,102558.50
2023-02-05T08:22:23.539Z,102558.47
2023-02-05T08:24:50.797Z,102539.03
2023-02-05T08:27:18.048Z,102535.78
2023-02-05T08:29:47.530Z,102538.38
2023-02-05T08:32:14.791Z,102529.88
2023-02-05T08:34:42.076Z,102526.25
2023-02-05T08:37:10.711Z,102511.22
2023-02-05T08:39:38.299Z,102516.31
2023-02-05T08:42:05.632Z,102513.72
2023-02-05T08:44:32.893Z,102512.31
2023-02-05T08:47:00.209Z,102490.31
2023-02-05T08:49:27.497Z,102491.28
2023-02-05T08:51:54.803Z,102484.47
2023-02-05T08:54:23.412Z,102488.84
2023-02-05T08:56:51.230Z,102484.44
2023-02-05T08:59:18.580Z,102491.53
2023-02-05T09:01:46.320Z,102479.91
2023-02-05T09:04:14.240Z,102483.47
2023-02-05T09:06:41.715Z,102479.13
2023-02-05T09:09:09.230Z,102486.28
2023-02-05T09:11:37.820Z,102478.41
2023-02-05T09:14:06.241Z,102477.31
2023-02-05T09:16:33.851Z,102465.13
2023-02-05T09:19:01.191Z,102468.81
2023-02-05T09:21:28.815Z,102463.63
2023-02-05T09:23:57.332Z,102466.06
2023-02-05T09:26:25.190Z,102473.06
2023-02-05T09:28:53.788Z,102469.47
2023-02-05T09:31:21.903Z,102466.94
2023-02-05T09:33:49.331Z,102458.16
2023-02-05T09:36:17.709Z,102464.28
2023-02-05T09:38:45.648Z,102458.19
2023-02-05T09:41:18.357Z,102463.47
2023-02-05T09:43:50.145Z,102456.53
2023-02-05T09:46:22.868Z,102451.41
2023-02-05T09:48:55.647Z,102448.94
2023-02-05T09:51:26.576Z,102441.06
2023-02-05T09:53:56.134Z,102452.69
2023-02-05T09:56:25.181Z,102450.13
2023-02-05T09:58:52.950Z,102439.69
2023-02-05T10:01:28.636Z,102440.66
2023-02-05T10:03:57.510Z,102442.56
2023-02-05T10:06:31.886Z,102439.06
2023-02-05T10:09:02.416Z,102436.50
2023-02-05T10:11:35.078Z,102431.22
2023-02-05T10:14:05.928Z,102433.88
2023-02-05T10:16:48.147Z,102423.34
2023-02-05T10:19:26.746Z,102418.03
2023-02-05T10:22:10.963Z,102420.72
2023-02-05T10:24:46.003Z,102426.06
2023-02-05T10:27:17.676Z,102418.16
2023-02-05T10:29:50.103Z,102420.81
2023-02-05T10:32:21.141Z,102417.28
2023-02-05T10:34:56.334Z,102412.91
2023-02-05T10:37:28.665Z,102414.69
2023-02-05T10:39:57.160Z,102414.69
2023-02-05T10:42:29.637Z,102417.34
2023-02-05T10:45:00.782Z,102419.09
2023-02-05T10:47:39.901Z,102419.09
2023-02-05T10:50:16.737Z,102414.72
2023-02-05T10:52:44.009Z,102408.50
2023-02-05T10:55:12.188Z,102397.03
2023-02-05T10:57:39.481Z,102386.44
2023-02-05T11:00:08.591Z,102384.69
2023-02-05T11:02:38.909Z,102385.56
2023-02-05T11:05:10.063Z,102382.94
2023-02-05T11:07:41.815Z,102385.56
2023-02-05T11:10:16.243Z,102385.53
2023-02-05T11:12:44.520Z,102382.84
2023-02-05T11:15:20.113Z,102381.09
2023-02-05T11:17:51.261Z,102379.34
2023-02-05T11:20:32.404Z,102366.06
2023-02-05T11:23:09.296Z,102365.16
2023-02-05T11:25:36.571Z,102367.75
2023-02-05T11:28:05.509Z,102368.66
2023-02-05T11:30:50.820Z,102372.19
2023-02-05T11:33:23.196Z,102369.53
2023-02-05T11:35:53.180Z,102363.31
2023-02-05T11:38:29.910Z,102372.22
2023-02-05T11:40:59.374Z,102358.09
2023-02-05T11:43:28.407Z,102349.28
2023-02-05T11:45:57.101Z,102357.22
2023-02-05T11:48:29.321Z,102351.94
2023-02-05T11:50:56.631Z,102348.41
2023-02-05T11:53:25.722Z,102351.09
2023-02-05T11:55:54.520Z,102345.81
2023-02-05T11:58:34.893Z,102337.84
2023-02-05T12:01:04.198Z,102335.16
2023-02-05T12:03:32.843Z,102335.09
2023-02-05T12:06:04.528Z,102326.28
2023-02-05T12:08:38.916Z,102332.44
2023-02-05T12:11:20.399Z,102337.81
2023-02-05T12:13:54.596Z,102343.00
2023-02-05T12:16:29.463Z,102337.72
2023-02-05T12:19:02.458Z,102343.84
2023-02-05T12:21:36.165Z,102340.34
2023-02-05T12:24:28.831Z,102334.16
2023-02-05T12:27:00.999Z,102333.28
2023-02-05T12:29:40.920Z,102327.13
2023-02-05T12:32:16.698Z,102321.72
2023-02-05T12:34:50.333Z,102320.88
2023-02-05T12:37:21.430Z,102316.34
2023-02-05T12:39:53.319Z,102327.06
2023-02-05T12:42:30.012Z,102321.75
2023-02-05T12:45:03.943Z,102311.13
2023-02-05T12:47:40.198Z,102320.84
2023-02-05T12:50:15.422Z,102324.44
2023-02-05T12:52:47.509Z,102323.59
2023-02-05T12:55:24.949Z,102324.44
2023-02-05T12:57:54.204Z,102315.66
2023-02-05T13:00:23.704Z,102316.53
2023-02-05T13:02:55.124Z,102307.75
2023-02-05T13:05:27.498Z,102314.78
2023-02-05T13:08:00.796Z,102318.34
2023-02-05T13:10:32.105Z,102306.00
2023-02-05T13:13:01.255Z,102307.75
2023-02-05T13:15:31.844Z,102292.78
2023-02-05T13:18:02.451Z,102301.59
2023-02-05T13:20:50.310Z,102296.31
2023-02-05T13:23:37.404Z,102304.25
2023-02-05T13:26:24.380Z,102295.44
2023-02-05T13:28:54.932Z,102299.84
2023-02-05T13:31:25.766Z,102298.97
2023-02-05T13:33:54.424Z,102294.59
2023-02-05T13:36:35.593Z,102283.97
2023-02-05T13:39:11.262Z,102280.50
2023-02-05T13:41:52.347Z,102284.91
2023-02-05T13:44:28.078Z,102290.19
2023-02-05T13:47:19.312Z,102299.88
2023-02-05T13:49:56.753Z,102302.50
2023-02-05T13:52:31.772Z,102303.41
2023-02-05T13:55:19.716Z,102299.84
2023-02-05T13:58:05.721Z,102321.94
2023-02-05T14:00:34.691Z,102328.09
2023-02-05T14:03:05.537Z,102331.63
2023-02-05T14:05:33.905Z,102327.16
2023-02-05T14:08:03.204Z,102329.81
2023-02-05T14:10:31.486Z,102331.50
2023-02-05T14:13:12.999Z,102328.84
2023-02-05T14:15:42.489Z,102327.94
2023-02-05T14:18:11.753Z,102329.75
2023-02-05T14:20:41.546Z,102323.53
2023-02-05T14:23:38.907Z,102322.66
2023-02-05T14:26:12.765Z,102310.25
2023-02-05T14:28:47.263Z,102303.22
2023-02-05T14:31:33.404Z,102295.22
2023-02-05T14:34:28.030Z,102295.28
2023-02-05T14:36:55.863Z,102287.38
2023-02-05T14:39:26.990Z,102294.44
2023-02-05T14:41:58.852Z,102298.91
2023-02-05T14:44:28.074Z,102298.06
2023-02-05T14:47:00.947Z,102312.19
2023-02-05T14:49:30.173Z,102313.13
2023-02-05T14:52:00.406Z,102314.00
2023-02-05T14:54:28.971Z,102324.63
2023-02-05T14:57:10.846Z,102326.41
2023-02-05T14:59:40.902Z,102332.59
2023-02-05T15:02:41.816Z,102336.13
2023-02-05T15:05:19.749Z,102343.19
2023-02-05T15:07:51.755Z,102346.75
2023-02-05T15:10:21.814Z,102344.97
2023-02-05T15:12:56.632Z,102337.03
2023-02-05T15:15:27.914Z,102335.28
2023-02-05T15:17:57.955Z,102337.94
2023-02-05T15:20:27.304Z,102346.75
2023-02-05T15:22:57.245Z,102354.69
2023-02-05T15:25:34.032Z,102351.16
2023-02-05T15:28:07.164Z,102345.00
2023-02-05T15:30:48.503Z,102345.88
2023-02-05T15:33:18.486Z,102360.00
2023-02-05T15:35:47.366Z,102357.34
2023-02-05T15:38:21.993Z,102350.28
2023-02-05T15:40:50.873Z,102345.00
2023-02-05T15:43:21.037Z,102331.78
2023-02-05T15:45:48.629Z,102334.44
2023-02-05T15:48:18.218Z,102323.84
2023-02-05T15:50:48.443Z,102333.53
2023-02-05T15:53:27.755Z,102329.97
2023-02-05T15:55:55.025Z,102334.41
2023-02-05T15:58:25.446Z,102337.06
2023-02-05T16:00:53.592Z,102347.66
2023-02-05T16:03:28.533Z,102349.38
2023-02-05T16:05:55.822Z,102349.38
2023-02-05T16:08:23.966Z,102343.19
2023-02-05T16:10:57.632Z,102341.41
2023-02-05T16:13:27.142Z,102347.56
2023-02-05T16:15:59.820Z,102351.13
2023-02-05T16:18:32.670Z,102356.47
2023-02-05T16:21:02.330Z,102346.72
2023-02-05T16:23:33.195Z,102347.56
2023-02-05T16:26:02.915Z,102346.63
2023-02-05T16:28:35.506Z,102343.97
2023-02-05T16:31:03.642Z,102356.25
2023-02-05T16:33:34.609Z,102356.25
2023-02-05T16:36:03.372Z,102366.03
2023-02-05T16:38:30.932Z,102372.25
2023-02-05T16:41:00.205Z,102388.19
2023-02-05T16:43:30.037Z,102401.44
2023-02-05T16:46:15.579Z,102406.75
2023-02-05T16:48:49.294Z,102406.75
2023-02-05T16:51:27.811Z,102412.94
2023-02-05T16:53:55.125Z,102419.09
2023-02-05T16:56:24.245Z,102414.56
2023-02-05T16:58:53.510Z,102427.66
2023-02-05T17:01:23.525Z,102422.50
2023-02-05T17:03:52.167Z,102424.28
2023-02-05T17:06:20.968Z,102418.97
2023-02-05T17:08:52.458Z,102425.84
2023-02-05T17:11:33.985Z,102426.63
2023-02-05T17:14:12.161Z,102432.94
2023-02-05T17:16:40.616Z,102429.25
2023-02-05T17:19:23.505Z,102415.94
2023-02-05T17:22:15.014Z,102424.03
2023-02-05T17:24:44.289Z,102435.44
2023-02-05T17:27:14.892Z,102438.78
2023-02-05T17:29:42.276Z,102444.66
2023-02-05T17:32:15.935Z,102453.25
2023-02-05T17:34:46.679Z,102439.59
2023-02-05T17:37:14.545Z,102452.50
2023-02-05T17:39:45.688Z,102455.00
2023-02-05T17:42:19.984Z,102447.38
2023-02-05T17:44:47.347Z,102438.97
2023-02-05T17:47:15.021Z,102431.06
2023-02-05T17:49:42.746Z,102436.94
2023-02-05T17:52:10.682Z,102440.31
2023-02-05T17:54:38.345Z,102440.34
2023-02-05T17:57:12.787Z,102434.44
2023-02-05T17:59:44.900Z,102421.13
2023-02-05T18:02:12.809Z,102419.28
2023-02-05T18:04:41.042Z,102416.41
2023-02-05T18:07:19.680Z,102422.72
2023-02-05T18:09:46.951Z,102425.41
2023-02-05T18:12:14.226Z,102428.63
2023-02-05T18:14:42.829Z,102438.06
2023-02-05T18:17:10.076Z,102443.16
2023-02-05T18:19:37.348Z,102454.25
2023-02-05T18:22:06.827Z,102472.69
2023-02-05T18:24:36.863Z,102474.22
2023-02-05T18:29:57.013Z,102469.09
2023-02-05T18:32:24.358Z,102469.34
2023-02-05T18:34:51.991Z,102455.25
2023-02-05T18:37:19.635Z,102449.16
2023-02-05T18:39:47.922Z,102453.16
2023-02-05T18:42:15.480Z,102455.44
2023-02-05T18:44:42.779Z,102464.91
2023-02-05T18:47:11.423Z,102463.97
2023-02-05T18:49:38.804Z,102465.84
2023-02-05T18:52:07.141Z,102472.56
2023-02-05T18:54:34.947Z,102472.38
2023-02-05T18:57:05.664Z,102471.75
2023-02-05T18:59:33.064Z,102467.31
2023-02-05T19:02:00.338Z,102481.44
2023-02-05T19:04:32.877Z,102481.13
2023-02-05T19:07:00.584Z,102487.25
2023-02-05T19:09:28.405Z,102496.25
2023-02-05T19:11:56.237Z,102500.06
2023-02-05T19:14:24.590Z,102488.66
2023-02-05T19:16:52.387Z,102473.16
2023-02-05T19:19:20.962Z,102484.28
2023-02-05T19:21:53.518Z,102490.03
2023-02-05T19:24:21.444Z,102499.59
2023-02-05T19:26:49.915Z,102499.50
2023-02-05T19:29:18.575Z,102509.03
2023-02-05T19:31:46.352Z,102523.88
2023-02-05T19:34:14.030Z,102507.69
2023-02-05T19:36:41.730Z,102513.91
2023-02-05T19:39:11.821Z,102513.53
2023-02-05T19:41:39.839Z,102511.25
2023-02-05T19:44:07.770Z,102513.16
2023-02-05T19:46:36.669Z,102507.50
2023-02-05T19:49:05.180Z,102516.84
2023-02-05T19:51:32.853Z,102514.13
2023-02-05T19:54:02.920Z,102521.09
2023-02-05T19:56:37.666Z,102514.16
2023-02-05T19:59:05.599Z,102519.31
2023-02-05T20:01:35.665Z,102520.50
2023-02-05T20:04:07.244Z,102517.25
2023-02-05T20:06:34.550Z,102530.91
2023-02-05T20:09:02.309Z,102522.97
2023-02-05T20:11:30.142Z,102516.97
2023-02-05T20:14:00.674Z,102512.91
2023-02-05T20:16:27.929Z,102510.09
2023-02-05T20:18:56.161Z,102512.53
2023-02-05T20:21:24.133Z,102513.31
2023-02-05T20:23:51.949Z,102513.50
2023-02-05T20:26:21.733Z,102515.72
2023-02-05T20:29:08.072Z,102513.97
2023-02-05T20:31:41.473Z,102513.84
2023-02-05T20:34:09.816Z,102518.97
2023-02-05T20:36:37.783Z,102516.00
2023-02-05T20:39:06.600Z,102514.13
2023-02-05T20:41:34.217Z,102511.22
2023-02-05T20:44:01.574Z,102518.72
2023-02-05T20:46:28.858Z,102520.91
2023-02-05T20:48:59.212Z,102512.38
2023-02-05T20:51:26.559Z,102509.44
2023-02-05T20:53:56.931Z,102507.50
2023-02-05T20:56:24.514Z,102503.38
2023-02-05T20:58:51.770Z,102507.44
2023-02-05T21:01:19.840Z,102507.03
2023-02-05T21:03:48.920Z,102505.91
2023-02-05T21:06:18.080Z,102501.41
2023-02-05T21:08:46.480Z,102512.94
2023-02-05T21:11:14.255Z,102515.38
2023-02-05T21:13:41.860Z,102520.63
2023-02-05T21:16:09.706Z,102536.38
2023-02-05T21:18:38.080Z,102535.19
2023-02-05T21:21:06.529Z,102546.91
2023-02-05T21:23:35.183Z,102565.28
2023-02-05T21:26:02.755Z,102557.59
2023-02-05T21:28:30.409Z,102552.13
2023-02-05T21:31:04.249Z,102563.34
2023-02-05T21:33:31.645Z,102566.19
2023-02-05T21:36:02.964Z,102569.91
2023-02-05T21:38:31.775Z,102574.44
2023-02-05T21:41:00.371Z,102583.75
2023-02-05T21:43:27.612Z,102581.13
2023-02-05T22:00:26.902Z,102612.22
2023-02-05T22:02:54.180Z,102621.47
2023-02-05T22:05:21.429Z,102605.44
2023-02-05T22:07:48.728Z,102612.19
2023-02-05T22:10:16.509Z,102614.53
2023-02-05T22:12:43.780Z,102617.78
2023-02-05T22:15:13.262Z,102624.13
2023-02-05T22:17:42.156Z,102627.69
2023-02-05T22:20:09.978Z,102637.16
2023-02-05T22:22:37.304Z,102638.75
2023-02-05T22:25:04.615Z,102653.69
2023-02-05T22:27:32.394Z,102642.47
2023-02-05T22:29:59.737Z,102644.28
2023-02-05T22:32:29.100Z,102653.38
2023-02-05T22:35:00.713Z,102659.16
2023-02-05T22:37:29.435Z,102659.00
2023-02-05T22:39:56.674Z,102647.00
2023-02-05T22:42:24.785Z,102646.75
2023-02-05T22:44:52.033Z,102647.31
2023-02-05T22:47:19.293Z,102635.91
2023-02-05T22:49:46.570Z,102642.75
2023-02-05T22:52:15.140Z,102639.25
2023-02-05T22:54:42.497Z,102652.22
2023-02-05T22:57:09.738Z,102647.72
2023-02-05T22:59:36.987Z,102633.50
2023-02-05T23:02:04.547Z,102646.00
2023-02-05T23:04:31.806Z,102646.31
2023-02-05T23:06:59.190Z,102644.38
2023-02-05T23:09:27.788Z,102652.03
2023-02-05T23:11:55.375Z,102657.44
2023-02-05T23:14:22.648Z,102661.06
2023-02-05T23:16:49.919Z,102657.13
2023-02-05T23:19:18.328Z,102657.94
2023-02-05T23:21:45.990Z,102648.75
2023-02-05T23:24:13.780Z,102649.75
2023-02-05T23:26:44.247Z,102659.06
2023-02-05T23:29:13.011Z,102660.78
2023-02-05T23:31:40.360Z,102656.97
2023-02-05T23:34:08.286Z,102654.38
2023-02-05T23:36:35.574Z,102658.47
2023-02-05T23:39:03.173Z,102649.00
2023-02-05T23:41:36.583Z,102636.53
2023-02-05T23:44:06.800Z,102634.41
2023-02-05T23:46:34.393Z,102638.81
2023-02-05T23:49:01.656Z,102622.47
2023-02-05T23:51:28.932Z,102628.97
2023-02-05T23:53:56.207Z,102636.44
2023-02-05T23:56:23.603Z,102630.19
2023-02-05T23:58:50.878Z,102624.31
